createdAt,value
2018-09-24T00:00:22.893Z,6.10
2018-09-24T00:02:51.986Z,6.10
2018-09-24T00:05:20.145Z,6.10
2018-09-24T00:07:48.377Z,6.00
2018-09-24T00:10:16.661Z,6.00
2018-09-24T00:12:45.629Z,5.90
2018-09-24T00:15:13.765Z,6.00
2018-09-24T00:17:41.923Z,5.90
2018-09-24T00:20:10.051Z,5.80
2018-09-24T00:22:38.173Z,5.80
2018-09-24T00:25:06.279Z,5.80
2018-09-24T00:27:34.355Z,5.80
2018-09-24T00:30:02.619Z,5.70
2018-09-24T00:32:30.813Z,5.70
2018-09-24T00:34:59.131Z,5.70
2018-09-24T00:37:27.349Z,5.80
2018-09-24T00:39:55.573Z,5.80
2018-09-24T00:42:24.030Z,5.90
2018-09-24T00:44:52.189Z,5.90
2018-09-24T00:47:20.366Z,5.90
2018-09-24T00:49:48.633Z,5.90
2018-09-24T00:52:16.953Z,5.80
2018-09-24T00:54:45.110Z,5.80
2018-09-24T00:57:13.285Z,5.70
2018-09-24T00:59:41.549Z,5.70
2018-09-24T01:02:09.677Z,5.70
2018-09-24T01:04:37.801Z,5.70
2018-09-24T01:07:06.761Z,5.70
2018-09-24T01:09:34.905Z,5.60
2018-09-24T01:12:03.175Z,5.70
2018-09-24T01:14:31.332Z,5.60
2018-09-24T01:16:59.446Z,5.60
2018-09-24T01:19:27.913Z,5.70
2018-09-24T01:21:56.085Z,5.60
2018-09-24T01:24:24.333Z,5.70
2018-09-24T01:26:52.631Z,5.60
2018-09-24T01:29:20.701Z,5.50
2018-09-24T01:31:48.913Z,5.60
2018-09-24T01:34:17.077Z,5.60
2018-09-24T01:36:45.145Z,5.60
2018-09-24T01:39:13.269Z,5.40
2018-09-24T01:41:41.369Z,5.50
2018-09-24T01:44:10.149Z,5.40
2018-09-24T01:46:38.456Z,5.40
2018-09-24T01:49:06.517Z,5.30
2018-09-24T01:51:35.309Z,5.30
2018-09-24T01:54:03.928Z,5.30
2018-09-24T01:56:32.218Z,5.30
2018-09-24T01:59:00.537Z,5.40
2018-09-24T02:01:29.249Z,5.40
2018-09-24T02:03:57.482Z,5.40
2018-09-24T02:06:25.634Z,5.30
2018-09-24T02:08:53.809Z,5.30
2018-09-24T02:11:21.946Z,5.20
2018-09-24T02:13:51.276Z,5.20
2018-09-24T02:16:19.925Z,5.20
2018-09-24T02:18:48.738Z,5.10
2018-09-24T02:21:17.169Z,5.20
2018-09-24T02:23:45.293Z,5.10
2018-09-24T02:26:13.479Z,5.10
2018-09-24T02:28:41.591Z,5.10
2018-09-24T02:31:09.888Z,5.10
2018-09-24T02:33:38.049Z,5.10
2018-09-24T02:36:06.758Z,5.10
2018-09-24T02:38:38.589Z,5.20
2018-09-24T02:41:07.573Z,5.20
2018-09-24T02:43:35.669Z,5.00
2018-09-24T02:46:03.930Z,4.90
2018-09-24T02:48:32.069Z,5.10
2018-09-24T02:51:00.208Z,5.10
2018-09-24T02:53:28.946Z,5.00
2018-09-24T02:55:57.053Z,5.00
2018-09-24T02:58:25.157Z,4.90
2018-09-24T03:00:53.213Z,5.00
2018-09-24T03:03:21.337Z,4.90
2018-09-24T03:05:49.482Z,4.80
2018-09-24T03:08:17.593Z,4.90
2018-09-24T03:10:45.665Z,4.90
2018-09-24T03:13:14.255Z,5.00
2018-09-24T03:15:42.661Z,4.80
2018-09-24T03:18:11.393Z,4.90
2018-09-24T03:20:40.802Z,4.80
2018-09-24T03:23:10.145Z,4.80
2018-09-24T03:25:38.697Z,4.80
2018-09-24T03:28:06.854Z,4.80
2018-09-24T03:30:36.536Z,4.80
2018-09-24T03:33:05.037Z,4.80
2018-09-24T03:35:34.001Z,4.70
2018-09-24T03:38:02.417Z,4.70
2018-09-24T03:40:30.821Z,4.60
2018-09-24T03:42:59.469Z,4.60
2018-09-24T03:45:28.519Z,4.60
2018-09-24T03:47:56.850Z,4.60
2018-09-24T03:50:25.109Z,4.50
2018-09-24T03:52:53.213Z,4.60
2018-09-24T03:55:21.377Z,4.50
2018-09-24T03:57:49.657Z,4.50
2018-09-24T04:00:18.649Z,4.40
2018-09-24T04:02:46.949Z,4.50
2018-09-24T04:05:20.585Z,4.60
2018-09-24T04:07:53.925Z,4.40
2018-09-24T04:10:27.354Z,4.40
2018-09-24T04:13:00.786Z,4.40
2018-09-24T04:15:34.169Z,4.40
2018-09-24T04:18:07.549Z,4.40
2018-09-24T04:20:40.916Z,4.30
2018-09-24T04:23:16.691Z,4.30
2018-09-24T04:25:50.410Z,4.40
2018-09-24T04:28:23.862Z,4.30
2018-09-24T04:30:57.318Z,4.30
2018-09-24T04:33:30.725Z,4.30
2018-09-24T04:36:04.097Z,4.20
2018-09-24T04:38:37.631Z,4.20
2018-09-24T04:41:11.180Z,4.20
2018-09-24T04:43:44.523Z,4.20
2018-09-24T04:46:17.875Z,4.30
2018-09-24T04:48:51.333Z,4.20
2018-09-24T04:51:24.994Z,4.10
2018-09-24T04:53:58.357Z,4.10
2018-09-24T04:56:31.872Z,4.10
2018-09-24T04:59:05.219Z,4.10
2018-09-24T05:01:38.864Z,4.00
2018-09-24T05:04:12.320Z,4.20
2018-09-24T05:06:45.737Z,4.10
2018-09-24T05:09:19.113Z,4.10
2018-09-24T05:11:52.486Z,4.20
2018-09-24T05:14:25.904Z,4.10
2018-09-24T05:16:59.365Z,4.20
2018-09-24T05:19:33.045Z,4.20
2018-09-24T05:22:06.449Z,4.20
2018-09-24T05:24:39.942Z,4.20
2018-09-24T05:27:13.421Z,4.20
2018-09-24T05:29:46.773Z,4.40
2018-09-24T05:32:20.365Z,4.40
2018-09-24T05:34:53.621Z,4.30
2018-09-24T05:37:26.953Z,4.40
2018-09-24T05:40:00.460Z,4.30
2018-09-24T05:42:33.827Z,4.40
2018-09-24T05:45:07.357Z,4.40
2018-09-24T05:47:40.818Z,4.50
2018-09-24T05:50:14.238Z,4.50
2018-09-24T05:52:48.069Z,4.50
2018-09-24T05:55:21.393Z,4.60
2018-09-24T05:57:55.049Z,4.60
2018-09-24T06:00:28.479Z,4.60
2018-09-24T06:03:02.050Z,4.70
2018-09-24T06:05:35.341Z,4.80
2018-09-24T06:08:08.685Z,4.80
2018-09-24T06:10:42.302Z,4.90
2018-09-24T06:13:15.596Z,5.00
2018-09-24T06:15:48.869Z,5.10
2018-09-24T06:18:22.465Z,5.20
2018-09-24T06:20:55.960Z,5.20
2018-09-24T06:23:29.286Z,5.30
2018-09-24T06:26:02.512Z,5.60
2018-09-24T06:28:35.726Z,5.80
2018-09-24T06:31:09.153Z,5.90
2018-09-24T06:33:42.377Z,6.10
2018-09-24T06:36:16.021Z,6.30
2018-09-24T06:38:49.351Z,6.40
2018-09-24T06:41:22.994Z,6.50
2018-09-24T06:43:56.461Z,6.40
2018-09-24T06:46:30.029Z,6.40
2018-09-24T06:49:03.419Z,6.40
2018-09-24T06:51:36.820Z,6.40
2018-09-24T06:54:10.169Z,6.50
2018-09-24T06:56:43.604Z,6.60
2018-09-24T06:59:17.061Z,6.70
2018-09-24T07:01:50.376Z,6.90
2018-09-24T07:04:23.921Z,7.00
2018-09-24T07:06:57.370Z,7.10
2018-09-24T07:09:30.909Z,7.20
2018-09-24T07:12:04.665Z,7.30
2018-09-24T07:14:38.274Z,7.30
2018-09-24T07:17:11.706Z,7.40
2018-09-24T07:19:45.143Z,7.50
2018-09-24T07:22:18.377Z,7.50
2018-09-24T07:24:51.788Z,7.50
2018-09-24T07:27:25.172Z,7.70
2018-09-24T07:29:58.649Z,7.70
2018-09-24T07:32:32.107Z,7.70
2018-09-24T07:35:05.569Z,7.70
2018-09-24T07:37:39.080Z,7.80
2018-09-24T07:40:12.541Z,7.80
2018-09-24T07:42:46.187Z,7.80
2018-09-24T07:45:19.628Z,7.90
2018-09-24T07:47:53.273Z,7.90
2018-09-24T07:50:27.722Z,7.90
2018-09-24T07:53:01.199Z,7.90
2018-09-24T07:55:34.689Z,8.00
2018-09-24T07:58:08.045Z,8.20
2018-09-24T08:00:43.257Z,8.00
2018-09-24T08:03:16.718Z,8.00
2018-09-24T08:05:50.092Z,8.10
2018-09-24T08:08:23.454Z,8.20
2018-09-24T08:10:56.967Z,8.20
2018-09-24T08:13:30.639Z,8.30
2018-09-24T08:16:04.227Z,8.30
2018-09-24T08:18:37.817Z,8.30
2018-09-24T08:21:11.476Z,8.20
2018-09-24T08:23:45.105Z,8.30
2018-09-24T08:26:18.650Z,8.40
2018-09-24T08:28:52.150Z,8.40
2018-09-24T08:31:25.573Z,8.40
2018-09-24T08:34:00.008Z,8.60
2018-09-24T08:36:33.458Z,8.50
2018-09-24T08:39:06.939Z,8.50
2018-09-24T08:41:40.941Z,8.60
2018-09-24T08:44:14.447Z,8.60
2018-09-24T08:46:47.905Z,8.60
2018-09-24T08:49:21.385Z,8.70
2018-09-24T08:51:54.905Z,8.70
2018-09-24T08:54:28.317Z,8.80
2018-09-24T08:57:01.988Z,8.80
2018-09-24T08:59:35.463Z,8.90
2018-09-24T09:02:08.926Z,8.90
2018-09-24T09:04:42.355Z,9.00
2018-09-24T09:07:16.001Z,8.90
2018-09-24T09:09:49.515Z,8.90
2018-09-24T09:12:23.025Z,8.90
2018-09-24T09:14:56.354Z,9.00
2018-09-24T09:17:29.770Z,9.00
2018-09-24T09:20:03.121Z,9.10
2018-09-24T09:22:36.509Z,9.30
2018-09-24T09:25:09.889Z,9.40
2018-09-24T09:27:43.456Z,9.20
2018-09-24T09:30:16.805Z,9.30
2018-09-24T09:32:50.634Z,9.30
2018-09-24T09:35:24.083Z,9.50
2018-09-24T09:37:57.494Z,9.50
2018-09-24T09:40:30.914Z,9.60
2018-09-24T09:43:04.637Z,9.50
2018-09-24T09:45:38.046Z,9.60
2018-09-24T09:48:11.477Z,9.70
2018-09-24T09:50:45.201Z,9.70
2018-09-24T09:53:18.695Z,9.70
2018-09-24T09:55:52.072Z,9.70
2018-09-24T09:58:25.529Z,9.90
2018-09-24T10:00:58.924Z,10.00
2018-09-24T10:03:32.489Z,9.90
2018-09-24T10:06:05.837Z,9.80
2018-09-24T10:08:39.660Z,9.90
2018-09-24T10:11:13.044Z,9.80
2018-09-24T10:13:46.461Z,10.00
2018-09-24T10:16:19.741Z,9.90
2018-09-24T10:18:53.096Z,9.80
2018-09-24T10:21:26.431Z,9.90
2018-09-24T10:23:59.925Z,10.00
2018-09-24T10:26:33.494Z,10.10
2018-09-24T10:29:06.917Z,10.10
2018-09-24T10:31:40.255Z,9.90
2018-09-24T10:34:15.052Z,9.90
2018-09-24T10:36:48.715Z,10.00
2018-09-24T10:39:22.157Z,10.10
2018-09-24T10:41:56.329Z,10.00
2018-09-24T10:44:29.805Z,10.00
2018-09-24T10:47:03.297Z,10.20
2018-09-24T10:49:36.840Z,10.00
2018-09-24T10:52:10.084Z,9.80
2018-09-24T10:54:43.887Z,9.70
2018-09-24T10:57:17.255Z,9.70
2018-09-24T10:59:50.817Z,9.90
2018-09-24T11:02:24.413Z,10.20
2018-09-24T11:04:58.104Z,10.20
2018-09-24T11:07:31.583Z,10.30
2018-09-24T11:10:05.129Z,10.40
2018-09-24T11:12:38.554Z,10.40
2018-09-24T11:15:12.204Z,10.20
2018-09-24T11:17:45.907Z,10.30
2018-09-24T11:20:19.383Z,10.30
2018-09-24T11:22:52.922Z,10.70
2018-09-24T11:25:26.997Z,10.90
2018-09-24T11:28:00.549Z,10.80
2018-09-24T11:30:34.105Z,10.80
2018-09-24T11:33:07.577Z,10.80
2018-09-24T11:35:41.125Z,10.90
2018-09-24T11:38:14.601Z,11.00
2018-09-24T11:40:48.114Z,10.60
2018-09-24T11:43:21.548Z,10.60
2018-09-24T11:45:54.903Z,10.80
2018-09-24T11:48:28.407Z,10.70
2018-09-24T11:51:02.593Z,10.60
2018-09-24T11:53:36.021Z,10.60
2018-09-24T11:56:09.256Z,10.60
2018-09-24T11:58:43.105Z,10.50
2018-09-24T12:01:16.486Z,10.70
2018-09-24T12:03:49.967Z,10.60
2018-09-24T12:06:23.197Z,10.50
2018-09-24T12:08:56.604Z,10.50
2018-09-24T12:11:30.067Z,10.40
2018-09-24T12:14:03.561Z,10.60
2018-09-24T12:16:37.141Z,10.30
2018-09-24T12:19:10.681Z,10.20
2018-09-24T12:21:44.357Z,10.40
2018-09-24T12:24:17.913Z,10.30
2018-09-24T12:26:51.416Z,10.10
2018-09-24T12:29:24.863Z,10.40
2018-09-24T12:31:58.149Z,10.50
2018-09-24T12:34:31.603Z,10.60
2018-09-24T12:37:05.134Z,10.60
2018-09-24T12:39:38.710Z,11.00
2018-09-24T12:42:12.152Z,10.80
2018-09-24T12:44:45.647Z,10.70
2018-09-24T12:47:19.069Z,10.60
2018-09-24T12:49:52.403Z,10.80
2018-09-24T12:52:25.743Z,11.00
2018-09-24T12:54:59.105Z,11.10
2018-09-24T12:57:32.611Z,11.00
2018-09-24T13:00:06.261Z,10.90
2018-09-24T13:02:39.550Z,10.70
2018-09-24T13:09:54.515Z,10.80
2018-09-24T13:12:27.977Z,10.50
2018-09-24T13:15:01.337Z,10.40
2018-09-24T13:17:35.142Z,10.40
2018-09-24T13:20:08.722Z,10.60
2018-09-24T13:22:42.217Z,10.70
2018-09-24T13:25:15.816Z,10.80
2018-09-24T13:27:49.401Z,10.90
2018-09-24T13:30:22.932Z,10.80
2018-09-24T13:32:56.401Z,10.70
2018-09-24T13:35:30.114Z,10.70
2018-09-24T13:38:03.678Z,10.70
2018-09-24T13:40:37.073Z,10.90
2018-09-24T13:43:10.426Z,10.90
2018-09-24T13:45:43.880Z,10.90
2018-09-24T13:48:18.074Z,10.90
2018-09-24T13:50:51.701Z,10.70
2018-09-24T13:53:25.134Z,10.70
2018-09-24T13:55:58.497Z,10.70
2018-09-24T13:58:32.054Z,10.80
2018-09-24T14:01:05.381Z,10.80
2018-09-24T14:03:38.657Z,10.90
2018-09-24T14:06:11.957Z,10.90
2018-09-24T14:08:45.345Z,10.80
2018-09-24T14:11:18.666Z,10.70
2018-09-24T14:13:52.009Z,10.70
2018-09-24T14:16:25.483Z,10.70
2018-09-24T14:18:58.874Z,10.60
2018-09-24T14:21:32.357Z,10.60
2018-09-24T14:24:06.493Z,10.60
2018-09-24T14:26:39.993Z,10.60
2018-09-24T14:29:13.341Z,10.70
2018-09-24T14:31:46.725Z,10.50
2018-09-24T14:34:20.190Z,10.50
2018-09-24T14:36:53.811Z,10.50
2018-09-24T14:39:27.251Z,10.30
2018-09-24T14:42:00.672Z,10.30
2018-09-24T14:44:34.553Z,10.30
2018-09-24T14:47:08.776Z,10.30
2018-09-24T14:49:42.125Z,10.20
2018-09-24T14:52:15.558Z,10.20
2018-09-24T14:54:48.982Z,10.20
2018-09-24T14:57:22.428Z,10.10
2018-09-24T14:59:56.280Z,10.10
2018-09-24T15:02:30.029Z,10.10
2018-09-24T15:05:03.570Z,10.00
2018-09-24T15:07:37.126Z,10.00
2018-09-24T15:10:10.441Z,10.00
2018-09-24T15:12:43.960Z,9.90
2018-09-24T15:15:17.456Z,10.00
2018-09-24T15:17:51.313Z,9.90
2018-09-24T15:20:24.804Z,9.90
2018-09-24T15:22:58.295Z,9.80
2018-09-24T15:25:32.145Z,9.90
2018-09-24T15:28:05.663Z,9.80
2018-09-24T15:30:39.389Z,9.70
2018-09-24T15:33:12.785Z,9.70
2018-09-24T15:35:46.346Z,9.70
2018-09-24T15:38:19.662Z,9.70
2018-09-24T15:40:52.903Z,9.60
2018-09-24T15:43:26.310Z,9.50
2018-09-24T15:45:59.705Z,9.50
2018-09-24T15:48:33.350Z,9.60
2018-09-24T15:51:06.854Z,9.50
2018-09-24T15:53:40.574Z,9.50
2018-09-24T15:56:14.858Z,9.50
2018-09-24T15:58:49.561Z,9.40
2018-09-24T16:01:22.983Z,9.40
2018-09-24T16:03:56.871Z,9.40
2018-09-24T16:06:30.177Z,9.40
2018-09-24T16:09:03.695Z,9.40
2018-09-24T16:11:37.218Z,9.30
2018-09-24T16:14:10.824Z,9.30
2018-09-24T16:16:44.721Z,9.30
2018-09-24T16:19:18.087Z,9.30
2018-09-24T16:21:58.462Z,9.30
2018-09-24T16:24:32.045Z,9.30
2018-09-24T16:27:05.493Z,9.30
2018-09-24T16:29:38.853Z,9.30
2018-09-24T16:32:12.121Z,9.20
2018-09-24T16:34:45.585Z,9.10
2018-09-24T16:37:19.019Z,9.20
2018-09-24T16:39:52.477Z,9.10
2018-09-24T16:42:25.959Z,9.10
2018-09-24T16:44:59.297Z,9.10
2018-09-24T16:47:32.681Z,9.10
2018-09-24T16:50:06.061Z,9.00
2018-09-24T16:52:39.523Z,9.00
2018-09-24T16:55:13.062Z,9.00
2018-09-24T16:57:46.253Z,8.90
2018-09-24T17:00:19.696Z,8.90
2018-09-24T17:02:52.947Z,8.90
2018-09-24T17:05:26.728Z,8.90
2018-09-24T17:08:00.444Z,8.90
2018-09-24T17:10:33.814Z,8.90
2018-09-24T17:13:07.503Z,8.90
2018-09-24T17:15:40.986Z,8.90
2018-09-24T17:18:14.393Z,8.90
2018-09-24T17:20:47.956Z,8.90
2018-09-24T17:23:21.470Z,8.90
2018-09-24T17:25:55.041Z,8.90
2018-09-24T17:28:28.431Z,8.90
2018-09-24T17:31:01.881Z,8.90
2018-09-24T17:33:35.446Z,8.90
2018-09-24T17:36:08.987Z,8.80
2018-09-24T17:38:42.355Z,8.90
2018-09-24T17:41:15.747Z,8.90
2018-09-24T17:43:49.784Z,8.90
2018-09-24T17:46:23.376Z,8.80
2018-09-24T17:48:56.810Z,8.90
2018-09-24T17:51:30.220Z,8.90
2018-09-24T17:54:03.865Z,8.80
2018-09-24T17:56:37.347Z,8.80
2018-09-24T17:59:10.922Z,8.80
2018-09-24T18:01:44.251Z,8.80
2018-09-24T18:04:18.851Z,8.90
2018-09-24T18:06:52.319Z,8.80
2018-09-24T18:09:26.484Z,8.70
2018-09-24T18:11:59.864Z,8.70
2018-09-24T18:14:34.261Z,8.80
2018-09-24T18:17:07.861Z,8.80
2018-09-24T18:19:41.419Z,8.80
2018-09-24T18:22:15.169Z,8.80
2018-09-24T18:24:49.014Z,8.80
2018-09-24T18:27:22.349Z,8.80
2018-09-24T18:29:55.889Z,8.80
2018-09-24T18:32:29.282Z,8.70
2018-09-24T18:35:02.789Z,8.70
2018-09-24T18:37:36.341Z,8.70
2018-09-24T18:40:09.664Z,8.60
2018-09-24T18:42:43.185Z,8.70
2018-09-24T18:45:16.629Z,8.60
2018-09-24T18:47:50.165Z,8.60
2018-09-24T18:50:23.735Z,8.60
2018-09-24T18:52:57.254Z,8.70
2018-09-24T18:55:30.682Z,8.70
2018-09-24T18:58:04.135Z,8.70
2018-09-24T19:00:37.529Z,8.60
2018-09-24T19:03:10.951Z,8.60
2018-09-24T19:05:44.417Z,8.60
2018-09-24T19:08:17.781Z,8.60
2018-09-24T19:10:51.311Z,8.60
2018-09-24T19:13:24.816Z,8.60
2018-09-24T19:15:58.226Z,8.60
2018-09-24T19:18:32.016Z,8.60
2018-09-24T19:21:05.653Z,8.50
2018-09-24T19:23:38.985Z,8.50
2018-09-24T19:26:13.078Z,8.50
2018-09-24T19:28:46.530Z,8.40
2018-09-24T19:31:19.795Z,8.40
2018-09-24T19:33:53.352Z,8.30
2018-09-24T19:36:26.770Z,8.40
2018-09-24T19:39:00.181Z,8.40
2018-09-24T19:41:33.857Z,8.50
2018-09-24T19:44:07.167Z,8.40
2018-09-24T19:46:40.473Z,8.40
2018-09-24T19:49:13.860Z,8.40
2018-09-24T19:51:47.241Z,8.40
2018-09-24T19:54:20.565Z,8.40
2018-09-24T19:56:54.033Z,8.30
2018-09-24T19:59:27.980Z,8.30
2018-09-24T20:02:01.355Z,8.30
2018-09-24T20:04:34.873Z,8.30
2018-09-24T20:07:08.086Z,8.30
2018-09-24T20:09:42.524Z,8.20
2018-09-24T20:12:16.046Z,8.20
2018-09-24T20:14:49.447Z,8.30
2018-09-24T20:17:22.954Z,8.20
2018-09-24T20:19:56.338Z,8.20
2018-09-24T20:22:29.966Z,8.10
2018-09-24T20:25:03.458Z,8.20
2018-09-24T20:27:37.014Z,8.10
2018-09-24T20:30:10.473Z,8.10
2018-09-24T20:32:43.840Z,8.10
2018-09-24T20:35:18.154Z,8.00
2018-09-24T20:37:51.773Z,8.10
2018-09-24T20:40:25.370Z,8.10
2018-09-24T20:42:58.829Z,8.00
2018-09-24T20:45:32.293Z,8.00
2018-09-24T20:48:05.644Z,7.90
2018-09-24T20:50:39.141Z,8.00
2018-09-24T20:53:12.615Z,8.00
2018-09-24T20:55:46.109Z,7.90
2018-09-24T20:58:19.403Z,7.90
2018-09-24T21:00:52.951Z,7.90
2018-09-24T21:03:26.381Z,7.90
2018-09-24T21:05:59.717Z,7.80
2018-09-24T21:08:33.147Z,7.80
2018-09-24T21:11:06.497Z,7.80
2018-09-24T21:13:39.916Z,7.80
2018-09-24T21:16:14.116Z,7.70
2018-09-24T21:18:47.693Z,7.70
2018-09-24T21:21:21.263Z,7.70
2018-09-24T21:23:54.661Z,7.70
2018-09-24T21:26:28.061Z,7.70
2018-09-24T21:29:01.457Z,7.60
2018-09-24T21:31:34.873Z,7.60
2018-09-24T21:34:08.904Z,7.60
2018-09-24T21:36:42.272Z,7.60
2018-09-24T21:39:15.645Z,7.60
2018-09-24T21:41:48.977Z,7.50
2018-09-24T21:44:22.310Z,7.50
2018-09-24T21:46:55.896Z,7.60
2018-09-24T21:49:29.357Z,7.50
2018-09-24T21:52:02.863Z,7.50
2018-09-24T21:54:36.238Z,7.50
2018-09-24T21:57:09.693Z,7.40
2018-09-24T21:59:43.201Z,7.50
2018-09-24T22:02:16.531Z,7.50
2018-09-24T22:04:49.910Z,7.50
2018-09-24T22:07:23.481Z,7.40
2018-09-24T22:09:56.921Z,7.40
2018-09-24T22:12:30.273Z,7.40
2018-09-24T22:15:03.690Z,7.40
2018-09-24T22:17:37.088Z,7.40
2018-09-24T22:20:10.781Z,7.40
2018-09-24T22:22:44.245Z,7.30
2018-09-24T22:25:17.801Z,7.40
2018-09-24T22:27:51.249Z,7.30
2018-09-24T22:30:24.592Z,7.30
2018-09-24T22:32:58.050Z,7.30
2018-09-24T22:35:31.469Z,7.40
2018-09-24T22:38:04.884Z,7.40
2018-09-24T22:40:38.289Z,7.30
2018-09-24T22:43:11.930Z,7.30
2018-09-24T22:45:45.411Z,7.30
2018-09-24T22:48:18.694Z,7.30
2018-09-24T22:50:52.386Z,7.20
2018-09-24T22:53:25.761Z,7.20
2018-09-24T22:55:59.166Z,7.20
2018-09-24T22:58:32.517Z,7.10
2018-09-24T23:01:05.845Z,7.10
2018-09-24T23:03:39.385Z,7.10
2018-09-24T23:06:12.913Z,7.10
2018-09-24T23:08:46.377Z,7.10
2018-09-24T23:11:19.669Z,7.00
2018-09-24T23:13:53.119Z,7.00
2018-09-24T23:16:26.653Z,6.90
2018-09-24T23:18:59.992Z,7.00
2018-09-24T23:21:33.317Z,6.90
2018-09-24T23:24:06.930Z,6.90
2018-09-24T23:26:40.467Z,6.90
2018-09-24T23:29:13.826Z,6.90
2018-09-24T23:31:47.257Z,6.80
2018-09-24T23:34:20.497Z,6.80
2018-09-24T23:36:53.888Z,6.80
2018-09-24T23:39:27.149Z,6.70
2018-09-24T23:42:00.662Z,6.80
2018-09-24T23:44:33.921Z,6.80
2018-09-24T23:47:07.453Z,6.80
2018-09-24T23:49:40.858Z,6.80
2018-09-24T23:52:14.322Z,6.70
2018-09-24T23:54:47.741Z,6.80
2018-09-24T23:57:21.130Z,6.80
2018-09-24T23:59:54.525Z,6.80
